createdAt,value
2019-03-02T00:02:56.847Z,14.20
2019-03-02T00:07:58.859Z,14.57
2019-03-02T00:13:03.885Z,18.77
2019-03-02T00:18:05.558Z,16.77
2019-03-02T00:23:07.668Z,12.90
2019-03-02T00:28:09.795Z,15.20
2019-03-02T00:33:11.944Z,16.40
2019-03-02T00:38:13.906Z,15.73
2019-03-02T00:43:15.864Z,15.37
2019-03-02T00:48:17.829Z,13.17
2019-03-02T00:53:20.088Z,16.50
2019-03-02T00:58:21.920Z,15.03
2019-03-02T01:03:24.103Z,14.10
2019-03-02T01:08:26.498Z,13.60
2019-03-02T01:13:28.436Z,10.97
2019-03-02T01:18:31.001Z,11.93
2019-03-02T01:23:33.196Z,17.77
2019-03-02T01:28:35.151Z,13.43
2019-03-02T01:33:37.180Z,13.60
2019-03-02T01:38:39.693Z,11.27
2019-03-02T01:43:42.212Z,14.73
2019-03-02T01:48:44.620Z,13.80
2019-03-02T01:53:46.896Z,16.60
2019-03-02T01:58:48.857Z,13.07
2019-03-02T02:03:51.464Z,17.77
2019-03-02T02:08:54.173Z,13.63
2019-03-02T02:13:56.565Z,13.07
2019-03-02T02:18:59.341Z,12.67
2019-03-02T02:24:01.588Z,13.90
2019-03-02T02:29:04.574Z,14.37
2019-03-02T02:34:08.660Z,14.13
2019-03-02T02:39:14.309Z,16.43
2019-03-02T02:44:16.218Z,13.53
2019-03-02T02:49:18.397Z,16.03
2019-03-02T02:54:23.461Z,17.37
2019-03-02T02:59:25.751Z,15.83
2019-03-02T03:04:27.782Z,25.10
2019-03-02T03:09:35.158Z,27.27
2019-03-02T03:14:37.069Z,27.30
2019-03-02T03:19:39.237Z,24.03
2019-03-02T03:24:41.982Z,26.60
2019-03-02T03:29:48.983Z,28.10
2019-03-02T03:34:48.497Z,32.07
2019-03-02T03:39:51.100Z,27.57
2019-03-02T03:44:52.943Z,27.70
2019-03-02T03:49:54.876Z,28.93
2019-03-02T03:54:57.436Z,34.13
2019-03-02T04:00:00.582Z,27.83
2019-03-02T04:05:08.550Z,24.47
2019-03-02T04:10:10.066Z,23.70
2019-03-02T04:15:12.188Z,21.77
2019-03-02T04:20:17.454Z,15.93
2019-03-02T04:25:19.765Z,17.57
2019-03-02T04:30:30.572Z,16.67
2019-03-02T04:35:30.031Z,18.60
2019-03-02T04:40:31.148Z,20.37
2019-03-02T04:45:33.056Z,18.07
2019-03-02T04:50:35.198Z,22.00
2019-03-02T04:55:37.691Z,18.27
2019-03-02T05:00:40.243Z,21.07
2019-03-02T05:05:43.460Z,17.93
2019-03-02T05:10:45.416Z,20.50
2019-03-02T05:15:48.897Z,20.20
2019-03-02T05:20:52.192Z,16.83
2019-03-02T05:25:54.557Z,17.33
2019-03-02T05:30:56.966Z,20.80
2019-03-02T05:35:59.210Z,21.43
2019-03-02T05:41:02.617Z,17.90
2019-03-02T05:46:05.155Z,20.10
2019-03-02T05:51:07.744Z,18.00
2019-03-02T05:56:10.036Z,23.00
2019-03-02T06:01:12.345Z,27.07
2019-03-02T06:06:15.345Z,22.13
2019-03-02T06:11:17.533Z,23.63
2019-03-02T06:16:21.969Z,25.47
2019-03-02T06:21:24.157Z,20.77
2019-03-02T06:26:26.407Z,24.63
2019-03-02T06:31:29.137Z,28.87
2019-03-02T06:36:31.425Z,24.90
2019-03-02T06:41:34.083Z,25.43
2019-03-02T06:46:36.440Z,20.77
2019-03-02T06:51:38.680Z,21.07
2019-03-02T06:57:00.461Z,28.20
2019-03-02T07:02:02.783Z,28.70
2019-03-02T07:07:06.202Z,24.23
2019-03-02T07:12:09.531Z,22.63
2019-03-02T07:17:13.421Z,23.47
2019-03-02T07:22:16.865Z,24.83
2019-03-02T07:27:19.175Z,26.33
2019-03-02T07:32:21.357Z,19.80
2019-03-02T07:37:23.206Z,25.30
2019-03-02T07:42:25.268Z,32.70
2019-03-02T07:47:27.244Z,25.37
2019-03-02T07:52:29.093Z,24.93
2019-03-02T07:57:31.561Z,26.60
2019-03-02T08:02:33.480Z,25.40
2019-03-02T08:07:38.077Z,30.30
2019-03-02T08:12:39.584Z,30.47
2019-03-02T08:17:41.764Z,28.90
2019-03-02T08:22:46.292Z,26.13
2019-03-02T08:27:47.801Z,29.63
2019-03-02T08:32:50.079Z,28.17
2019-03-02T08:37:52.066Z,27.80
2019-03-02T08:42:54.345Z,22.73
2019-03-02T08:47:56.641Z,26.30
2019-03-02T08:52:58.555Z,25.93
2019-03-02T08:58:00.363Z,29.53
2019-03-02T09:03:03.506Z,25.50
2019-03-02T09:08:05.636Z,23.47
2019-03-02T09:13:07.668Z,19.67
2019-03-02T09:18:10.101Z,22.23
2019-03-02T09:23:12.064Z,23.03
2019-03-02T09:28:13.916Z,24.40
2019-03-02T09:33:16.324Z,23.27
2019-03-02T09:38:20.953Z,18.50
2019-03-02T09:43:22.249Z,26.47
2019-03-02T09:48:25.464Z,23.63
2019-03-02T09:53:29.263Z,20.90
2019-03-02T09:58:31.857Z,18.13
2019-03-02T10:03:33.712Z,21.90
2019-03-02T10:08:36.845Z,22.00
2019-03-02T10:13:39.052Z,20.27
2019-03-02T10:18:41.337Z,20.17
2019-03-02T10:23:43.333Z,19.57
2019-03-02T10:28:45.610Z,23.30
2019-03-02T10:33:47.523Z,16.70
2019-03-02T10:38:51.829Z,20.37
2019-03-02T10:43:53.904Z,30.67
2019-03-02T10:48:56.378Z,26.60
2019-03-02T10:53:59.575Z,17.87
2019-03-02T10:59:03.005Z,16.93
2019-03-02T11:04:25.034Z,17.00
2019-03-02T11:09:45.038Z,18.53
2019-03-02T11:15:04.117Z,20.17
2019-03-02T11:20:26.960Z,17.03
2019-03-02T11:26:06.643Z,20.47
2019-03-02T11:31:14.377Z,16.77
2019-03-02T11:36:34.921Z,12.93
2019-03-02T11:41:59.356Z,11.50
2019-03-02T11:47:13.853Z,20.23
2019-03-02T11:52:25.164Z,13.53
2019-03-02T11:57:37.707Z,15.07
2019-03-02T12:02:58.478Z,11.00
2019-03-02T12:08:18.021Z,12.40
2019-03-02T12:13:34.813Z,16.80
2019-03-02T12:18:46.768Z,14.83
2019-03-02T12:23:58.053Z,11.27
2019-03-02T12:29:18.569Z,16.83
2019-03-02T12:34:34.599Z,14.23
2019-03-02T12:40:02.877Z,12.37
2019-03-02T12:45:21.440Z,12.07
2019-03-02T12:50:33.877Z,13.57
2019-03-02T12:55:56.997Z,16.80
2019-03-02T13:01:02.317Z,11.70
2019-03-02T13:06:35.351Z,14.20
2019-03-02T13:12:01.983Z,10.47
2019-03-02T13:17:33.119Z,11.83
2019-03-02T13:22:58.239Z,11.87
2019-03-02T13:28:12.928Z,11.57
2019-03-02T13:33:35.658Z,12.60
2019-03-02T13:38:54.348Z,16.60
2019-03-02T13:44:13.648Z,10.77
2019-03-02T13:49:41.416Z,11.93
2019-03-02T13:54:50.669Z,11.00
2019-03-02T14:00:09.030Z,9.07
2019-03-02T14:05:42.901Z,9.67
2019-03-02T14:11:09.535Z,14.37
2019-03-02T14:16:22.774Z,11.70
2019-03-02T14:21:38.685Z,14.17
2019-03-02T14:27:06.337Z,10.53
2019-03-02T14:32:26.505Z,10.27
2019-03-02T14:37:33.992Z,8.50
2019-03-02T14:42:53.163Z,11.83
2019-03-02T14:48:21.517Z,13.13
2019-03-02T14:53:45.193Z,10.50
2019-03-02T14:59:10.254Z,10.60
2019-03-02T15:04:39.144Z,10.87
2019-03-02T15:09:59.376Z,12.20
2019-03-02T15:15:20.386Z,11.83
2019-03-02T15:20:32.656Z,10.77
2019-03-02T15:26:02.097Z,10.97
2019-03-02T15:31:31.446Z,14.03
2019-03-02T15:37:02.182Z,11.60
2019-03-02T15:42:22.519Z,9.50
2019-03-02T15:47:32.074Z,12.80
2019-03-02T15:52:54.120Z,12.77
2019-03-02T15:58:10.788Z,11.63
2019-03-02T16:03:33.693Z,11.87
2019-03-02T16:08:58.475Z,8.93
2019-03-02T16:14:28.156Z,10.80
2019-03-02T16:19:36.823Z,10.10
2019-03-02T16:25:04.907Z,11.57
2019-03-02T16:30:14.394Z,11.23
2019-03-02T16:35:41.780Z,10.63
2019-03-02T16:40:59.744Z,10.03
2019-03-02T16:46:10.179Z,9.57
2019-03-02T16:51:44.147Z,13.00
2019-03-02T16:57:09.040Z,10.60
2019-03-02T17:02:21.840Z,14.27
2019-03-02T17:07:39.860Z,9.47
2019-03-02T17:13:10.874Z,12.43
2019-03-02T17:18:28.296Z,13.37
2019-03-02T17:23:48.816Z,11.77
2019-03-02T17:29:26.038Z,15.97
2019-03-02T17:34:51.647Z,14.00
2019-03-02T17:40:14.916Z,11.87
2019-03-02T17:45:36.610Z,11.97
2019-03-02T17:50:46.568Z,13.00
2019-03-02T17:56:07.179Z,10.93
2019-03-02T18:01:32.180Z,13.03
2019-03-02T18:06:39.927Z,13.20
2019-03-02T18:11:51.627Z,12.57
2019-03-02T18:17:19.147Z,17.37
2019-03-02T18:22:20.160Z,11.93
2019-03-02T18:27:21.996Z,15.63
2019-03-02T18:32:24.159Z,15.37
2019-03-02T18:37:26.489Z,15.00
2019-03-02T18:42:30.764Z,15.43
2019-03-02T18:47:33.029Z,16.30
2019-03-02T18:52:46.600Z,18.27
2019-03-02T18:57:50.600Z,17.33
2019-03-02T19:02:52.283Z,15.87
2019-03-02T19:07:54.568Z,16.87
2019-03-02T19:12:57.028Z,19.20
2019-03-02T19:18:00.057Z,18.00
2019-03-02T19:23:02.635Z,20.60
2019-03-02T19:28:04.539Z,21.90
2019-03-02T19:33:06.469Z,19.53
2019-03-02T19:38:08.397Z,22.33
2019-03-02T19:43:10.245Z,20.93
2019-03-02T19:48:12.655Z,23.30
2019-03-02T19:53:14.654Z,22.10
2019-03-02T19:58:17.120Z,21.17
2019-03-02T20:03:19.917Z,19.53
2019-03-02T20:08:21.833Z,24.13
2019-03-02T20:13:24.387Z,21.33
2019-03-02T20:18:26.350Z,24.97
2019-03-02T20:23:36.864Z,24.00
2019-03-02T20:28:33.605Z,24.43
2019-03-02T20:33:36.001Z,22.30
2019-03-02T20:38:39.154Z,21.87
2019-03-02T20:43:41.078Z,25.93
2019-03-02T20:48:43.183Z,24.87
2019-03-02T20:53:46.371Z,23.73
2019-03-02T20:58:48.303Z,26.67
2019-03-02T21:03:50.204Z,26.83
2019-03-02T21:08:52.216Z,24.93
2019-03-02T21:13:54.517Z,26.47
2019-03-02T21:18:57.186Z,26.43
2019-03-02T21:24:00.220Z,28.23
2019-03-02T21:29:03.004Z,28.07
2019-03-02T21:34:05.120Z,26.63
2019-03-02T21:39:06.952Z,26.90
2019-03-02T21:44:10.752Z,30.00
2019-03-02T21:49:13.737Z,28.00
2019-03-02T21:54:15.731Z,30.77
2019-03-02T21:59:18.224Z,30.93
2019-03-02T22:04:20.069Z,29.33
2019-03-02T22:09:22.376Z,28.70
2019-03-02T22:14:24.639Z,27.30
2019-03-02T22:19:26.525Z,28.67
2019-03-02T22:24:28.439Z,28.37
2019-03-02T22:29:30.664Z,30.97
2019-03-02T22:34:32.666Z,31.37
2019-03-02T22:39:34.657Z,28.50
2019-03-02T22:44:36.586Z,27.50
2019-03-02T22:49:38.526Z,31.47
2019-03-02T22:54:40.728Z,29.70
2019-03-02T23:00:07.002Z,30.77
2019-03-02T23:05:10.891Z,29.30
2019-03-02T23:10:13.405Z,31.13
2019-03-02T23:15:15.439Z,32.50
2019-03-02T23:20:17.776Z,30.40
2019-03-02T23:25:19.721Z,34.53
2019-03-02T23:30:22.038Z,36.50
2019-03-02T23:35:23.932Z,34.27
2019-03-02T23:40:26.080Z,37.50
2019-03-02T23:45:28.593Z,36.30
2019-03-02T23:50:30.411Z,34.93
2019-03-02T23:55:32.235Z,36.27
